createdAt,value
2022-11-07T00:02:00.198Z,99681.44
2022-11-07T00:04:29.447Z,99697.22
2022-11-07T00:07:00.905Z,99703.94
2022-11-07T00:09:29.685Z,99703.25
2022-11-07T00:11:58.257Z,99701.69
2022-11-07T00:14:26.433Z,99705.06
2022-11-07T00:16:54.975Z,99696.31
2022-11-07T00:19:24.519Z,99694.84
2022-11-07T00:21:53.626Z,99696.81
2022-11-07T00:24:21.926Z,99708.25
2022-11-07T00:26:50.119Z,99707.38
2022-11-07T00:29:21.077Z,99705.56
2022-11-07T00:31:51.017Z,99697.28
2022-11-07T00:34:19.457Z,99705.56
2022-11-07T00:36:49.022Z,99706.38
2022-11-07T00:39:17.408Z,99701.84
2022-11-07T00:41:48.465Z,99709.72
2022-11-07T00:44:16.597Z,99711.78
2022-11-07T00:46:44.748Z,99702.31
2022-11-07T00:49:12.857Z,99703.16
2022-11-07T00:51:41.471Z,99702.97
2022-11-07T00:54:11.143Z,99693.69
2022-11-07T00:56:39.388Z,99716.91
2022-11-07T00:59:07.741Z,99708.00
2022-11-07T01:01:36.763Z,99696.88
2022-11-07T01:04:22.244Z,99707.00
2022-11-07T01:06:50.440Z,99705.47
2022-11-07T01:09:22.403Z,99696.75
2022-11-07T01:11:51.181Z,99710.84
2022-11-07T01:14:21.892Z,99705.78
2022-11-07T01:16:53.490Z,99711.66
2022-11-07T01:19:21.757Z,99710.47
2022-11-07T01:21:50.128Z,99709.25
2022-11-07T01:24:20.064Z,99717.97
2022-11-07T01:26:49.154Z,99713.25
2022-11-07T01:29:18.236Z,99711.41
2022-11-07T01:31:47.037Z,99711.69
2022-11-07T01:34:15.230Z,99706.81
2022-11-07T01:36:43.367Z,99709.50
2022-11-07T01:39:11.515Z,99715.72
2022-11-07T01:41:42.231Z,99710.31
2022-11-07T01:44:48.552Z,99718.75
2022-11-07T01:47:17.456Z,99709.84
2022-11-07T01:49:45.833Z,99718.75
2022-11-07T01:52:18.573Z,99715.91
2022-11-07T01:54:53.290Z,99711.88
2022-11-07T01:57:26.979Z,99712.53
2022-11-07T01:59:59.341Z,99719.44
2022-11-07T02:02:33.355Z,99722.75
2022-11-07T02:05:03.671Z,99718.88
2022-11-07T02:07:41.501Z,99711.81
2022-11-07T02:10:11.205Z,99720.75
2022-11-07T02:12:41.943Z,99722.56
2022-11-07T02:15:14.909Z,99724.13
2022-11-07T02:17:43.532Z,99725.50
2022-11-07T02:20:12.999Z,99731.56
2022-11-07T02:22:50.650Z,99718.84
2022-11-07T02:25:21.552Z,99729.22
2022-11-07T02:27:54.946Z,99716.44
2022-11-07T02:30:27.815Z,99711.69
2022-11-07T02:32:56.020Z,99717.91
2022-11-07T02:35:37.778Z,99722.28
2022-11-07T02:38:11.330Z,99716.72
2022-11-07T02:40:41.745Z,99727.94
2022-11-07T02:43:13.663Z,99724.91
2022-11-07T02:45:46.979Z,99725.41
2022-11-07T02:48:16.360Z,99712.09
2022-11-07T02:50:45.855Z,99715.81
2022-11-07T02:53:14.422Z,99722.03
2022-11-07T02:55:44.302Z,99722.88
2022-11-07T02:58:12.347Z,99721.59
2022-11-07T03:00:40.589Z,99711.66
2022-11-07T03:03:08.897Z,99704.22
2022-11-07T03:05:36.950Z,99703.84
2022-11-07T03:08:05.346Z,99701.81
2022-11-07T03:10:33.351Z,99699.13
2022-11-07T03:13:03.232Z,99700.78
2022-11-07T03:15:31.487Z,99684.19
2022-11-07T03:17:59.967Z,99685.16
2022-11-07T03:20:28.930Z,99681.34
2022-11-07T03:22:57.098Z,99680.38
2022-11-07T03:25:25.280Z,99678.38
2022-11-07T03:27:53.272Z,99681.06
2022-11-07T03:30:22.679Z,99682.44
2022-11-07T03:32:53.021Z,99675.03
2022-11-07T03:35:21.590Z,99668.81
2022-11-07T03:37:51.025Z,99665.09
2022-11-07T03:40:19.874Z,99674.00
2022-11-07T03:42:48.541Z,99672.34
2022-11-07T03:45:18.231Z,99670.50
2022-11-07T03:47:51.084Z,99671.97
2022-11-07T03:50:23.897Z,99670.84
2022-11-07T03:52:52.164Z,99677.34
2022-11-07T03:55:22.016Z,99680.44
2022-11-07T03:57:50.272Z,99672.53
2022-11-07T04:00:19.343Z,99676.06
2022-11-07T04:02:49.191Z,99668.97
2022-11-07T04:05:17.626Z,99668.00
2022-11-07T04:07:46.099Z,99667.25
2022-11-07T04:10:14.551Z,99667.91
2022-11-07T04:13:14.544Z,99666.03
2022-11-07T04:16:03.243Z,99666.53
2022-11-07T04:18:33.226Z,99669.22
2022-11-07T04:21:01.617Z,99656.59
2022-11-07T04:23:30.017Z,99661.41
2022-11-07T04:26:15.355Z,99656.44
2022-11-07T04:28:43.540Z,99657.72
2022-11-07T04:31:11.666Z,99659.41
2022-11-07T04:33:41.498Z,99667.84
2022-11-07T04:36:09.974Z,99665.78
2022-11-07T04:38:38.162Z,99657.53
2022-11-07T04:41:06.536Z,99663.38
2022-11-07T04:43:34.552Z,99661.72
2022-11-07T04:46:02.639Z,99666.75
2022-11-07T04:48:30.796Z,99668.75
2022-11-07T04:51:00.642Z,99670.47
2022-11-07T04:53:28.680Z,99665.06
2022-11-07T04:55:56.838Z,99673.16
2022-11-07T04:58:24.845Z,99663.75
2022-11-07T05:00:52.894Z,99669.16
2022-11-07T05:03:20.935Z,99670.81
2022-11-07T05:05:49.047Z,99668.75
2022-11-07T05:08:18.565Z,99663.38
2022-11-07T05:10:46.959Z,99671.28
2022-11-07T05:13:15.263Z,99651.97
2022-11-07T05:15:43.800Z,99659.00
2022-11-07T05:18:12.662Z,99656.16
2022-11-07T05:20:41.432Z,99650.41
2022-11-07T05:23:15.885Z,99654.41
2022-11-07T05:25:49.509Z,99653.56
2022-11-07T05:28:25.676Z,99654.03
2022-11-07T05:31:00.351Z,99647.25
2022-11-07T05:33:31.999Z,99645.56
2022-11-07T05:36:13.001Z,99651.78
2022-11-07T05:38:43.363Z,99648.94
2022-11-07T05:41:23.898Z,99652.47
2022-11-07T05:43:52.203Z,99647.72
2022-11-07T05:46:22.716Z,99659.16
2022-11-07T05:48:59.620Z,99657.09
2022-11-07T05:51:29.271Z,99657.47
2022-11-07T05:57:06.353Z,99649.22
2022-11-07T05:59:34.610Z,99660.81
2022-11-07T06:02:03.015Z,99657.09
2022-11-07T06:04:31.508Z,99647.63
2022-11-07T06:06:59.678Z,99649.13
2022-11-07T06:09:29.222Z,99646.41
2022-11-07T06:11:58.149Z,99647.28
2022-11-07T06:14:31.502Z,99645.06
2022-11-07T06:16:59.689Z,99641.53
2022-11-07T06:19:28.064Z,99640.50
2022-11-07T06:21:56.408Z,99653.44
2022-11-07T06:24:24.698Z,99642.84
2022-11-07T06:26:54.384Z,99642.84
2022-11-07T06:29:25.651Z,99640.78
2022-11-07T06:31:57.549Z,99637.09
2022-11-07T06:34:26.699Z,99633.19
2022-11-07T06:37:02.544Z,99628.34
2022-11-07T06:39:31.729Z,99628.44
2022-11-07T06:42:00.888Z,99635.50
2022-11-07T06:44:29.287Z,99636.34
2022-11-07T06:46:58.841Z,99630.47
2022-11-07T06:49:28.150Z,99620.53
2022-11-07T06:51:57.545Z,99629.84
2022-11-07T06:54:25.960Z,99630.84
2022-11-07T06:56:54.816Z,99627.31
2022-11-07T07:02:44.414Z,99629.19
2022-11-07T07:05:17.071Z,99624.81
2022-11-07T07:07:48.647Z,99631.69
2022-11-07T07:10:17.507Z,99628.16
2022-11-07T07:15:47.819Z,99632.69
2022-11-07T07:18:21.570Z,99627.16
2022-11-07T07:20:56.699Z,99633.38
2022-11-07T07:23:26.813Z,99637.94
2022-11-07T07:25:55.737Z,99635.88
2022-11-07T07:28:27.540Z,99649.16
2022-11-07T07:31:29.163Z,99658.09
2022-11-07T07:34:09.091Z,99660.31
2022-11-07T07:36:37.309Z,99670.41
2022-11-07T07:39:08.686Z,99673.50
2022-11-07T07:41:50.147Z,99677.22
2022-11-07T07:44:18.291Z,99668.66
2022-11-07T07:46:47.384Z,99674.91
2022-11-07T07:49:17.720Z,99680.28
2022-11-07T07:51:46.469Z,99684.63
2022-11-07T07:54:26.508Z,99678.59
2022-11-07T07:57:03.503Z,99691.38
2022-11-07T07:59:33.139Z,99692.06
2022-11-07T08:02:03.347Z,99690.22
2022-11-07T08:04:33.477Z,99696.09
2022-11-07T08:07:01.560Z,99700.06
2022-11-07T08:09:31.844Z,99689.47
2022-11-07T08:12:00.223Z,99690.50
2022-11-07T08:14:28.358Z,99687.41
2022-11-07T08:16:56.661Z,99690.97
2022-11-07T08:19:25.270Z,99684.16
2022-11-07T08:21:56.384Z,99692.94
2022-11-07T08:24:24.892Z,99687.34
2022-11-07T08:26:53.040Z,99691.16
2022-11-07T08:29:21.363Z,99686.78
2022-11-07T08:31:54.281Z,99694.31
2022-11-07T08:34:23.662Z,99691.69
2022-11-07T08:36:56.324Z,99699.63
2022-11-07T08:39:26.774Z,99698.41
2022-11-07T08:41:56.010Z,99690.97
2022-11-07T08:44:26.871Z,99682.50
2022-11-07T08:46:55.791Z,99701.00
2022-11-07T08:49:24.040Z,99693.75
2022-11-07T08:51:52.158Z,99692.56
2022-11-07T08:54:26.436Z,99690.31
2022-11-07T08:57:13.525Z,99691.13
2022-11-07T08:59:57.340Z,99689.56
2022-11-07T09:05:35.170Z,99686.13
2022-11-07T09:08:03.700Z,99689.09
2022-11-07T09:10:33.511Z,99687.22
2022-11-07T09:13:01.860Z,99691.38
2022-11-07T09:15:30.959Z,99693.91
2022-11-07T09:18:05.871Z,99689.16
2022-11-07T09:20:35.382Z,99690.66
2022-11-07T09:23:04.703Z,99694.19
2022-11-07T09:25:34.865Z,99691.09
2022-11-07T09:28:04.315Z,99689.41
2022-11-07T09:30:32.781Z,99695.66
2022-11-07T09:33:01.917Z,99694.91
2022-11-07T09:35:33.148Z,99696.84
2022-11-07T09:38:02.236Z,99695.66
2022-11-07T09:40:42.041Z,99693.88
2022-11-07T09:43:30.012Z,99698.97
2022-11-07T09:46:14.396Z,99693.81
2022-11-07T09:48:53.944Z,99697.03
2022-11-07T09:51:30.428Z,99682.31
2022-11-07T09:54:11.082Z,99684.63
2022-11-07T09:56:44.530Z,99689.66
2022-11-07T09:59:24.805Z,99690.50
2022-11-07T10:01:56.333Z,99690.53
2022-11-07T10:04:32.401Z,99690.53
2022-11-07T10:07:29.603Z,99694.31
2022-11-07T10:10:15.205Z,99687.59
2022-11-07T10:13:21.804Z,99687.63
2022-11-07T10:16:01.083Z,99690.78
2022-11-07T10:18:39.675Z,99677.53
2022-11-07T10:24:33.907Z,99684.06
2022-11-07T10:27:03.700Z,99673.72
2022-11-07T10:29:44.750Z,99666.44
2022-11-07T10:32:23.289Z,99669.78
2022-11-07T10:35:00.571Z,99673.13
2022-11-07T10:37:30.010Z,99670.38
2022-11-07T10:39:59.023Z,99662.31
2022-11-07T10:42:36.807Z,99656.69
2022-11-07T10:45:17.465Z,99660.22
2022-11-07T10:47:59.692Z,99656.00
2022-11-07T10:50:43.664Z,99657.44
2022-11-07T10:53:22.034Z,99662.31
2022-11-07T10:56:06.204Z,99668.28
2022-11-07T10:58:50.312Z,99680.19
2022-11-07T11:02:24.235Z,99680.47
2022-11-07T11:08:34.227Z,99677.59
2022-11-07T11:17:52.133Z,99668.31
2022-11-07T12:21:27.643Z,99580.28
2022-11-07T12:24:08.752Z,99574.28
2022-11-07T12:26:46.480Z,99576.00
2022-11-07T12:29:25.484Z,99568.97
2022-11-07T12:32:05.170Z,99573.97
2022-11-07T12:34:48.676Z,99569.22
2022-11-07T12:37:39.815Z,99561.13
2022-11-07T12:40:29.185Z,99568.81
2022-11-07T12:43:08.905Z,99567.78
2022-11-07T12:45:50.205Z,99567.38
2022-11-07T12:48:40.226Z,99554.31
2022-11-07T12:51:17.574Z,99554.94
2022-11-07T12:53:53.751Z,99555.78
2022-11-07T12:56:26.735Z,99555.88
2022-11-07T12:58:57.778Z,99540.47
2022-11-07T13:01:38.933Z,99545.28
2022-11-07T13:04:16.391Z,99535.94
2022-11-07T13:06:54.198Z,99533.03
2022-11-07T13:09:30.911Z,99528.47
2022-11-07T13:12:07.994Z,99536.81
2022-11-07T13:14:41.283Z,99531.78
2022-11-07T13:17:21.833Z,99541.78
2022-11-07T13:20:04.751Z,99529.31
2022-11-07T13:22:36.652Z,99526.88
2022-11-07T13:25:24.426Z,99514.81
2022-11-07T13:28:26.563Z,99516.09
2022-11-07T13:31:01.102Z,99499.88
2022-11-07T13:33:33.432Z,99491.56
2022-11-07T13:36:14.035Z,99517.13
2022-11-07T13:38:50.211Z,99509.47
2022-11-07T13:41:21.432Z,99518.22
2022-11-07T13:43:56.742Z,99511.56
2022-11-07T13:46:29.229Z,99503.25
2022-11-07T13:48:59.854Z,99502.81
2022-11-07T13:51:33.683Z,99484.50
2022-11-07T13:54:12.698Z,99484.13
2022-11-07T13:56:47.590Z,99475.78
2022-11-07T13:59:33.906Z,99457.47
2022-11-07T14:02:05.158Z,99457.88
2022-11-07T14:04:40.518Z,99456.63
2022-11-07T14:07:20.243Z,99447.28
2022-11-07T14:09:56.408Z,99448.31
2022-11-07T14:12:27.496Z,99441.84
2022-11-07T14:14:59.921Z,99442.47
2022-11-07T14:17:33.167Z,99453.72
2022-11-07T14:20:08.605Z,99457.03
2022-11-07T14:22:38.701Z,99444.13
2022-11-07T14:25:22.400Z,99437.06
2022-11-07T14:27:51.949Z,99448.09
2022-11-07T14:30:22.187Z,99448.31
2022-11-07T14:32:52.438Z,99438.75
2022-11-07T14:35:23.661Z,99429.59
2022-11-07T14:37:51.836Z,99417.53
2022-11-07T14:40:20.494Z,99427.09
2022-11-07T14:42:50.226Z,99421.50
2022-11-07T14:45:39.455Z,99426.06
2022-11-07T14:48:12.693Z,99408.78
2022-11-07T14:50:41.337Z,99406.31
2022-11-07T14:53:12.615Z,99417.13
2022-11-07T14:55:46.904Z,99382.59
2022-11-07T14:58:18.773Z,99407.16
2022-11-07T15:00:56.048Z,99397.13
2022-11-07T15:03:32.014Z,99390.91
2022-11-07T15:06:00.344Z,99407.13
2022-11-07T15:08:31.052Z,99381.75
2022-11-07T15:11:07.927Z,99396.06
2022-11-07T15:13:36.632Z,99385.06
2022-11-07T15:16:09.609Z,99382.56
2022-11-07T15:18:42.869Z,99387.97
2022-11-07T15:21:28.798Z,99389.84
2022-11-07T15:23:57.687Z,99367.16
2022-11-07T15:26:34.988Z,99385.03
2022-11-07T15:29:15.882Z,99378.78
2022-11-07T15:31:50.259Z,99367.56
2022-11-07T15:34:33.739Z,99370.25
2022-11-07T15:37:12.190Z,99379.16
2022-11-07T15:39:40.374Z,99383.69
2022-11-07T15:42:08.973Z,99364.31
2022-11-07T15:44:37.939Z,99371.16
2022-11-07T15:47:20.787Z,99376.28
2022-11-07T15:49:51.431Z,99366.72
2022-11-07T15:52:20.309Z,99364.78
2022-11-07T15:54:48.593Z,99347.38
2022-11-07T15:57:16.873Z,99346.31
2022-11-07T15:59:45.665Z,99342.16
2022-11-07T16:02:18.717Z,99341.56
2022-11-07T16:04:46.986Z,99341.38
2022-11-07T16:07:19.006Z,99343.88
2022-11-07T16:09:48.879Z,99330.38
2022-11-07T16:12:18.880Z,99327.88
2022-11-07T16:14:50.161Z,99308.38
2022-11-07T16:17:22.395Z,99306.91
2022-11-07T16:19:50.781Z,99327.06
2022-11-07T16:22:19.072Z,99324.19
2022-11-07T16:24:47.325Z,99309.00
2022-11-07T16:27:19.003Z,99316.31
2022-11-07T16:29:47.509Z,99315.50
2022-11-07T16:32:18.363Z,99304.88
2022-11-07T16:34:49.042Z,99316.94
2022-11-07T16:37:17.246Z,99307.16
2022-11-07T16:39:47.248Z,99314.88
2022-11-07T16:42:16.880Z,99307.59
2022-11-07T16:44:45.248Z,99303.03
2022-11-07T16:47:16.296Z,99288.88
2022-11-07T16:49:44.726Z,99297.19
2022-11-07T16:52:16.329Z,99292.84
2022-11-07T16:54:44.465Z,99281.81
2022-11-07T16:57:14.884Z,99280.56
2022-11-07T16:59:43.805Z,99290.09
2022-11-07T17:02:20.717Z,99278.06
2022-11-07T17:04:49.544Z,99278.47
2022-11-07T17:07:20.201Z,99270.97
2022-11-07T17:09:48.753Z,99275.75
2022-11-07T17:12:21.870Z,99262.28
2022-11-07T17:14:50.464Z,99273.91
2022-11-07T17:17:20.250Z,99249.59
2022-11-07T17:19:48.594Z,99258.53
2022-11-07T17:22:22.170Z,99260.00
2022-11-07T17:24:50.240Z,99253.13
2022-11-07T17:27:23.899Z,99234.25
2022-11-07T17:29:52.583Z,99251.47
2022-11-07T17:32:21.087Z,99234.03
2022-11-07T17:35:17.854Z,99221.16
2022-11-07T17:37:43.465Z,99229.28
2022-11-07T17:40:19.117Z,99210.38
2022-11-07T17:42:47.131Z,99219.50
2022-11-07T17:45:16.000Z,99207.47
2022-11-07T17:47:44.972Z,99196.66
2022-11-07T17:50:15.969Z,99206.19
2022-11-07T17:52:45.488Z,99212.88
2022-11-07T17:55:15.651Z,99202.69
2022-11-07T17:57:55.645Z,99202.47
2022-11-07T18:00:27.415Z,99202.47
2022-11-07T18:02:57.707Z,99180.03
2022-11-07T18:05:32.877Z,99202.88
2022-11-07T18:08:07.107Z,99187.13
2022-11-07T18:10:35.748Z,99185.03
2022-11-07T18:13:03.965Z,99176.09
2022-11-07T18:15:33.836Z,99180.88
2022-11-07T18:18:06.802Z,99164.06
2022-11-07T18:20:37.980Z,99193.34
2022-11-07T18:23:07.533Z,99170.06
2022-11-07T18:25:38.999Z,99166.34
2022-11-07T18:28:07.469Z,99152.63
2022-11-07T18:30:36.492Z,99140.34
2022-11-07T18:33:04.684Z,99144.09
2022-11-07T18:35:32.852Z,99143.47
2022-11-07T18:38:03.640Z,99138.47
2022-11-07T18:40:34.228Z,99137.88
2022-11-07T18:43:02.290Z,99145.53
2022-11-07T18:45:36.317Z,99117.69
2022-11-07T18:48:04.878Z,99138.94
2022-11-07T18:50:41.415Z,99125.19
2022-11-07T18:53:15.102Z,99136.00
2022-11-07T18:55:44.728Z,99143.47
2022-11-07T18:58:13.107Z,99163.84
2022-11-07T19:00:41.583Z,99156.38
2022-11-07T19:03:09.697Z,99141.63
2022-11-07T19:05:41.140Z,99136.84
2022-11-07T19:08:09.781Z,99131.44
2022-11-07T19:10:37.986Z,99110.63
2022-11-07T19:13:08.632Z,99095.47
2022-11-07T19:15:52.264Z,99103.19
2022-11-07T19:18:38.473Z,99086.13
2022-11-07T19:21:07.066Z,99076.94
2022-11-07T19:23:38.091Z,99076.72
2022-11-07T19:26:06.979Z,99056.81
2022-11-07T19:28:37.602Z,99065.72
2022-11-07T19:31:06.033Z,99056.81
2022-11-07T19:33:34.371Z,99056.56
2022-11-07T19:36:04.948Z,99051.16
2022-11-07T19:38:33.638Z,99055.13
2022-11-07T19:41:04.572Z,99045.13
2022-11-07T19:46:30.653Z,99025.38
2022-11-07T19:48:58.682Z,99037.66
2022-11-07T19:51:27.270Z,99013.34
2022-11-07T19:53:56.064Z,99011.69
2022-11-07T19:56:25.076Z,98996.31
2022-11-07T19:58:54.451Z,99007.13
2022-11-07T20:01:25.384Z,98994.44
2022-11-07T20:03:56.667Z,98978.22
2022-11-07T20:06:27.222Z,98987.19
2022-11-07T20:08:55.243Z,98978.84
2022-11-07T20:11:25.436Z,98958.06
2022-11-07T20:13:58.666Z,98950.56
2022-11-07T20:16:29.981Z,98927.09
2022-11-07T20:18:59.746Z,98938.06
2022-11-07T20:21:29.227Z,98920.19
2022-11-07T20:23:59.553Z,98923.06
2022-11-07T20:26:29.812Z,98915.41
2022-11-07T20:28:58.678Z,98925.59
2022-11-07T20:31:29.511Z,98892.72
2022-11-07T20:34:00.397Z,98898.97
2022-11-07T20:36:31.334Z,98876.75
2022-11-07T20:39:00.185Z,98873.66
2022-11-07T20:41:33.088Z,98876.81
2022-11-07T20:44:06.122Z,98884.53
2022-11-07T20:46:35.999Z,98877.88
2022-11-07T20:49:09.124Z,98868.56
2022-11-07T20:51:38.285Z,98877.53
2022-11-07T20:54:06.663Z,98880.47
2022-11-07T20:56:35.423Z,98879.28
2022-11-07T20:59:03.534Z,98863.94
2022-11-07T21:01:36.420Z,98867.69
2022-11-07T21:04:08.086Z,98871.84
2022-11-07T21:06:37.407Z,98865.41
2022-11-07T21:09:05.629Z,98861.47
2022-11-07T21:11:35.082Z,98865.22
2022-11-07T21:14:03.183Z,98868.53
2022-11-07T21:16:34.712Z,98878.94
2022-11-07T21:19:05.185Z,98876.66
2022-11-07T21:21:35.817Z,98877.47
2022-11-07T21:24:04.161Z,98873.53
2022-11-07T21:26:34.397Z,98870.25
2022-11-07T21:29:06.148Z,98872.94
2022-11-07T21:31:35.155Z,98879.38
2022-11-07T21:34:03.212Z,98875.66
2022-11-07T21:36:32.605Z,98867.41
2022-11-07T21:39:03.146Z,98891.88
2022-11-07T21:41:32.271Z,98885.03
2022-11-07T21:44:00.520Z,98872.38
2022-11-07T21:46:30.518Z,98877.38
2022-11-07T21:48:59.719Z,98885.47
2022-11-07T21:51:29.906Z,98887.75
2022-11-07T21:53:59.482Z,98885.06
2022-11-07T21:56:30.984Z,98897.72
2022-11-07T21:59:01.021Z,98897.28
2022-11-07T22:01:35.351Z,98907.03
2022-11-07T22:04:07.332Z,98886.28
2022-11-07T22:06:37.504Z,98886.91
2022-11-07T22:09:06.825Z,98878.63
2022-11-07T22:11:36.421Z,98892.94
2022-11-07T22:14:05.009Z,98894.78
2022-11-07T22:16:33.816Z,98905.97
2022-11-07T22:19:02.248Z,98901.81
2022-11-07T22:21:31.680Z,98915.91
2022-11-07T22:23:59.965Z,98957.75
2022-11-07T22:26:29.541Z,98951.50
2022-11-07T22:28:59.550Z,98965.03
2022-11-07T22:31:30.342Z,98977.94
2022-11-07T22:34:01.356Z,98962.19
2022-11-07T22:36:30.161Z,98975.88
2022-11-07T22:38:59.074Z,98980.84
2022-11-07T22:41:29.278Z,98978.84
2022-11-07T22:43:59.279Z,98973.47
2022-11-07T22:46:28.713Z,98968.97
2022-11-07T22:48:57.594Z,98993.63
2022-11-07T22:51:28.813Z,98978.41
2022-11-07T22:53:58.237Z,98976.63
2022-11-07T22:56:27.181Z,98974.50
2022-11-07T22:58:55.571Z,98959.50
2022-11-07T23:01:26.825Z,98969.97
2022-11-07T23:03:55.784Z,98970.34
2022-11-07T23:06:25.219Z,98975.53
2022-11-07T23:08:54.131Z,98965.16
2022-11-07T23:14:14.013Z,98975.53
2022-11-07T23:16:45.748Z,98963.56
2022-11-07T23:19:15.580Z,98954.50
2022-11-07T23:21:43.872Z,98947.94
2022-11-07T23:24:12.139Z,98949.44
2022-11-07T23:26:40.515Z,98953.78
2022-11-07T23:29:11.803Z,98939.78
2022-11-07T23:31:40.349Z,98942.28
2022-11-07T23:34:09.954Z,98943.19
2022-11-07T23:36:38.159Z,98948.22
2022-11-07T23:39:07.523Z,98942.84
2022-11-07T23:41:35.813Z,98943.09
2022-11-07T23:44:04.168Z,98928.38
2022-11-07T23:46:49.820Z,98928.38
2022-11-07T23:49:52.195Z,98923.56
2022-11-07T23:52:20.625Z,98911.38
2022-11-07T23:55:05.799Z,98925.06
2022-11-07T23:57:58.351Z,98931.59
